Impacts TAF Board
For situational awareness. Not to be used for flight planning purposes.
IDs:

KPHX - Phoenix/Sky Harbor, AZ, US

Issued at 1501 UTC 16 Feb 2019
Updated at 1539 UTC 16 Feb 2019
Potential Impact None Slight Moderate High
Time<<17/04Z 17/05Z 17/06Z 17/07Z 17/08Z 17/09Z 17/10Z 17/11Z 17/12Z 17/13Z 17/14Z 17/15Z 17/16Z>>
Type PRVL PRVL PRVL PRVL PRVL PRVL PRVL PRVL PRVL PRVL PRVL PRVL PRVL
VIS >6 >6 >6 >6 >6 >6 >6 >6 >6 >6 >6 >6 >6
CIG -- -- -- -- -- -- -- -- -- -- -- -- 80
Cover FEW FEW FEW FEW FEW FEW FEW FEW FEW SCT SCT SCT BKN
FltCat VFR VFR VFR VFR VFR VFR VFR VFR VFR VFR VFR VFR VFR
WX -- -- -- -- -- -- -- -- -- -- -- -- --
WDir 260 260 260 260 260 260 260 260 260 140 140 140 260
WSpd 7 7 7 7 7 7 7 7 7 5 5 5 9
WGst -- -- -- -- -- -- -- -- -- -- -- -- --
Raw TAF
KPHX 161501Z 1615/1718 26007KT P6SM SCT050 SCT250
  FM161800 28012G20KT P6SM FEW070 SCT250
  FM170200 26007KT P6SM FEW100 FEW250
  FM171300 14005KT P6SM SCT070
  FM171600 26009KT P6SM BKN080


METAR Board
Radar Display
Forecast Discussion
For situational awareness. Not to be used for flight planning purposes.